• Join FlightAware (Why Join?)
  • Login
  • US Flag 
07:44PM EST


 

Airport Tracker/Info


-or-


 

Live Flight TrackerFlight Track Log ✈ N830QS ✈ 21-Jun-2013 ✈ 36U - KIWA

Flight Track Log - Related Links

Times and Time Zones

All times are in EDT time to prevent confusion due to time zone crossing. See the N830QS flight status page for this flight to view local times or setup timezone preferences in your user account.

Time Position Orientation Groundspeed Altitude Reporting Facility
EDT Latitude Longitude Course Direction KTS MPH feet Rate Location/Type
03:05PM 40.2464 -111.9367 187° South  Level FlightAware Approximate
03:06PM 40.1543 -111.9500 180° South  Level FlightAware Approximate
03:07PM 40.0638 -111.9667 180° South  Level FlightAware Approximate
03:08PM 39.9714 -111.9779 186° South  Level FlightAware Approximate
03:09PM 39.8795 -111.9902 194° South  Level FlightAware Approximate
03:09PM 40.5206 -111.4492 186° South 211 243 10,100  Level Salt Lake Center
03:10PM 39.7880 -112.0089 186° South  Level FlightAware Approximate
03:10PM 40.6036 -111.4297 10° North 251 289 14,100  Level Salt Lake Center
03:11PM 39.6956 -112.0198 184° South  Level FlightAware Approximate
03:11PM 40.6400 -111.3397 62° Northeast 319 367 15,100  Level Salt Lake Center
03:12PM 39.6029 -112.0275 184° South  Level FlightAware Approximate
03:12PM 40.5689 -111.2842 149° Southeast 311 358 15,000  Level Salt Lake Center
03:13PM 39.5107 -112.0390 191° South  Level FlightAware Approximate
03:13PM 40.4800 -111.2611 169° South 321 369 15,000  Level Salt Lake Center
03:14PM 39.4189 -112.0560 186° South  Level FlightAware Approximate
03:14PM 40.3892 -111.2417 171° South 328 377 16,900  Level Salt Lake Center
03:15PM 40.2953 -111.2303 175° South 334 384 19,300 1,500 Climbing Salt Lake Center
03:16PM 40.1825 -111.2603 191° South 343 395 20,000 300 Climbing Salt Lake Center
03:17PM 40.0847 -111.2931 194° South 366 421 20,000  Level Salt Lake Center
03:18PM 39.9817 -111.3178 190° South 348 400 20,000  Level Salt Lake Center
03:19PM 39.8911 -111.3400 191° South 346 398 20,000 840 Level Salt Lake Center
03:20PM 39.8003 -111.3625 191° South 347 399 21,800 1,800 Climbing Salt Lake Center
03:21PM 39.7064 -111.3858 191° South 343 395 23,800 2,100 Climbing Salt Lake Center
03:22PM 39.5931 -111.4131 190° South 344 396 26,200 2,100 Climbing Salt Lake Center
03:23PM 39.4983 -111.4353 190° South 347 399 28,200 1,920 Climbing Salt Lake Center
03:24PM 39.4050 -111.4600 192° South 344 396 30,200 1,800 Climbing Salt Lake Center
03:25PM 39.3081 -111.4828 190° South 352 405 32,000 1,320 Climbing Salt Lake Center
03:26PM 39.2000 -111.5097 191° South 360 414 33,000 960 Climbing Salt Lake Center
03:27PM 39.0953 -111.5350 191° South 377 434 34,000 480 Climbing Salt Lake Center
03:28PM 38.9875 -111.5597 190° South 391 450 34,000  Level Salt Lake Center
03:29PM 38.8761 -111.5858 190° South 403 464 34,000  Level Salt Lake Center
03:30PM 38.7656 -111.6114 190° South 404 465 34,000  Level Salt Lake Center
03:32PM 38.6361 -111.6425 191° South 395 455 34,000  Level Salt Lake Center
03:33PM 38.5317 -111.6667 190° South 384 442 34,000  Level Salt Lake Center
03:34PM 38.4278 -111.6914 191° South 379 436 34,000  Level Salt Lake Center
03:35PM 38.3228 -111.7150 190° South 382 440 34,000  Level Salt Lake Center
03:36PM 38.2175 -111.7392 190° South 383 441 34,000  Level Salt Lake Center
03:37PM 38.1125 -111.7622 190° South 383 441 34,000  Level Salt Lake Center
03:38PM 38.0092 -111.7856 190° South 380 437 34,000 -60 Level Salt Lake Center
03:39PM 37.8850 -111.8147 191° South 377 434 33,900 -540 Descending Salt Lake Center
03:40PM 37.7792 -111.8397 191° South 382 440 33,000 -480 Descending Salt Lake Center
03:41PM 37.6700 -111.8636 190° South 391 450 33,000  Level Salt Lake Center
03:42PM 37.5606 -111.8886 190° South 396 456 33,000  Level Salt Lake Center
03:43PM 37.4525 -111.9128 190° South 394 453 33,000  Level Salt Lake Center
03:44PM 37.3453 -111.9383 191° South 391 450 33,000  Level Salt Lake Center
03:45PM 37.2353 -111.9628 190° South 394 453 33,000  Level Los Angeles Center
03:46PM 37.1050 -111.9919 190° South 395 455 33,000  Level Los Angeles Center
03:47PM 36.9961 -112.0169 190° South 396 456 33,000  Level Los Angeles Center
03:48PM 36.8875 -112.0419 190° South 397 457 33,000  Level Los Angeles Center
03:49PM 36.7786 -112.0667 190° South 396 456 33,000  Level Los Angeles Center
03:50PM 36.6694 -112.0906 190° South 397 457 33,000  Level Los Angeles Center
03:51PM 36.5600 -112.1144 190° South 398 458 33,000  Level Los Angeles Center
03:52PM 36.4286 -112.1444 190° South 398 458 33,000  Level Los Angeles Center
03:53PM 36.3203 -112.1678 190° South 397 457 33,000  Level Los Angeles Center
03:54PM 36.2117 -112.1919 190° South 395 455 33,000  Level Los Angeles Center
03:55PM 36.0942 -112.2186 190° South 395 455 33,000 -300 Level Los Angeles Center
03:56PM 35.9856 -112.2403 189° South 394 453 32,500 -840 Descending Los Angeles Center
03:57PM 35.8731 -112.2464 183° South 405 466 31,300 -1,320 Descending Los Angeles Center
03:58PM 35.7581 -112.2133 167° South 422 486 29,800 -1,140 Descending Los Angeles Center
03:59PM 35.6433 -112.1794 167° South 423 487 29,000 -420 Descending Los Angeles Center
04:00PM 35.5292 -112.1483 167° South 420 483 29,000  Level Los Angeles Center
04:02PM 35.3906 -112.1125 168° South 423 487 29,000  Level Los Angeles Center
04:03PM 35.2747 -112.0803 167° South 424 488 29,000  Level Los Angeles Center
04:03PM 35.1814 -112.0567 168° South 424 488 29,000 -660 Level Albuquerque Center
04:04PM 35.0667 -112.0417 174° South 416 479 27,800 -1,740 Descending Albuquerque Center
04:05PM 34.9508 -112.0272 174° South 417 480 25,500 -2,280 Descending Albuquerque Center
04:06PM 34.8397 -112.0108 173° South 408 470 23,200 -2,580 Descending Albuquerque Center
04:08PM 34.7069 -111.9931 174° South 395 455 20,300 -2,520 Descending Albuquerque Center
04:09PM 34.6028 -111.9792 174° South 381 438 18,000 -2,160 Descending Albuquerque Center
04:10PM 34.5022 -111.9644 173° South 369 425 15,900 -2,160 Descending Albuquerque Center
04:11PM 34.4067 -111.9517 174° South 351 404 13,600 -1,860 Descending Albuquerque Center
04:12PM 34.3136 -111.9381 173° South 339 390 12,100 -1,260 Descending Albuquerque Center
04:13PM 34.2267 -111.9258 173° South 322 371 11,000 -540 Descending Albuquerque Center
04:14PM 34.1353 -111.9258 180° South 279 321 11,000  Level Albuquerque Center
04:15PM 34.0592 -111.9308 183° South 277 319 11,000  Level Albuquerque Center
04:16PM 33.9917 -111.8803 148° Southeast 295 339 11,000 -240 Level Albuquerque Center
04:17PM 33.9314 -111.8214 141° Southeast 293 337 10,600 -780 Descending Albuquerque Center
04:18PM 33.8586 -111.7494 141° Southeast 289 333 9,400 -1,140 Descending Albuquerque Center
04:19PM 33.7967 -111.6892 141° Southeast 289 333 8,300 -1,020 Descending Albuquerque Center
04:20PM 33.7469 -111.6383 140° Southeast 237 273 7,400 -660 Descending Albuquerque Center
04:21PM 33.7003 -111.5908 140° Southeast 222 255 7,000 -240 Descending Albuquerque Center
04:22PM 33.6517 -111.5433 141° Southeast 224 258 7,000  Level Albuquerque Center
04:23PM 33.5964 -111.5081 152° Southeast 227 261 7,000  Level Albuquerque Center
04:24PM 33.5258 -111.4869 166° South 221 254 7,000  Level Albuquerque Center
04:25PM 33.4644 -111.4756 171° South 222 255 7,000 -120 Level Albuquerque Center
04:26PM 33.4031 -111.4797 183° South 221 254 6,800 -540 Descending Albuquerque Center
04:27PM 33.3419 -111.4906 188° South 225 259 6,000 -1,560 Descending Albuquerque Center
04:28PM 33.2950 -111.5392 221° Southwest 225 259 3,700 -1,680 Descending Albuquerque Center
04:29PM 33.2667 -111.6000 241° Southwest 192 221 2,600 -1,020 Descending Phoenix TRACON
04:30PM 33.2833 -111.6333 301° West 150 173 1,600 -1,020 Descending Phoenix TRACON